Terminal Aerodrome Forecast
Issued by NWS

Home | Current Version | Previous Version | Text Only | Print | Product List | Glossary On
Versions: 1 2 3 4 5 6 7 8 9 10 11 12 13 14 15 16 17
000
FTUS42 KTBW 182337
TAFLAL
TAF
KLAL 182337Z 1900/1924 25008KT P6SM BKN050 BKN200
     FM190300 VRB03KT P6SM SCT035 BKN200
     FM190800 VRB03KT 6SM BR FEW010 BKN200
     FM191400 20010KT P6SM SCT040 BKN200
     FM192200 22010KT P6SM VCTS BKN040CB=

USA.gov is the U.S. government's official web portal to all federal, state and local government web resources and services.